Terminal Aerodrome Forecast
Issued by NWS

Home | Current Version | Previous Version | Text Only | Print | Product List | Glossary Off
Versions: 1 2 3 4 5 6 7 8 9 10 11 12 13 14 15 16

000
FTUS43 KUNR 241100
TAFGCC
TAF
KGCC 241126Z 2412/2512 29010KT P6SM SCT120
     FM241600 30017KT P6SM SCT050
     FM250200 35011KT P6SM OVC025
     FM250800 34010KT P6SM BKN020=

USA.gov is the U.S. government's official web portal to all federal, state and local government web resources and services.